Time;durP1;ratioP1;P1;durP2;ratioP2;P2;SDS_P1;SDS_P2;PMS_P1;PMS_P2;Temp;Humidity;BMP_temperature;BMP_pressure;BME280_temperature;BME280_humidity;BME280_pressure;Samples;Min_cycle;Max_cycle;Signal;HPM_P1;HPM_P2
2023/02/09 00:01:27;;;;;;;0.80;0.80;;;-1.40;70.00;;;-3.12;62.41;96736.00;5012147;28;20188;-32
2023/02/09 00:03:56;;;;;;;0.80;0.80;;;-1.50;69.80;;;-3.15;62.00;96736.13;5012057;28;20193;-36
2023/02/09 00:06:23;;;;;;;0.80;0.80;;;-1.40;69.70;;;-3.18;62.10;96733.69;5012027;28;20194;-34
2023/02/09 00:08:50;;;;;;;0.90;0.90;;;-1.40;69.90;;;-3.20;62.22;96725.22;5015540;28;20217;-32
2023/02/09 00:14:12;;;;;;;0.80;0.80;;;-1.50;69.80;;;-3.24;61.90;96724.50;5014889;28;20180;-31
2023/02/09 00:16:40;;;;;;;1.00;1.00;;;-1.50;69.60;;;-3.27;61.98;96716.91;5014788;28;20186;-35
2023/02/09 00:19:07;;;;;;;0.80;0.80;;;-1.50;69.60;;;-3.28;62.19;96716.09;5015264;28;20201;-33
2023/02/09 00:21:35;;;;;;;0.80;0.80;;;-1.50;69.60;;;-3.30;61.77;96717.06;5015739;28;20654;-33
2023/02/09 00:24:02;;;;;;;0.80;0.80;;;-1.60;69.60;;;-3.35;61.91;96714.66;5030792;28;20208;-34
2023/02/09 00:26:29;;;;;;;0.90;0.90;;;-1.50;69.70;;;-3.35;61.95;96716.41;5015302;28;20209;-33
2023/02/09 00:28:57;;;;;;;1.00;1.00;;;-1.60;69.60;;;-3.39;61.69;96715.69;5014994;28;20651;-32
2023/02/09 00:31:24;;;;;;;0.80;0.80;;;-1.60;69.50;;;-3.41;61.67;96714.91;5030912;28;20190;-36
2023/02/09 00:33:51;;;;;;;0.90;0.90;;;-1.60;69.50;;;-3.44;62.06;96707.31;5015210;28;20213;-33
2023/02/09 00:36:18;;;;;;;1.00;1.00;;;-1.70;69.50;;;-3.47;62.28;96708.28;5030577;28;20194;-34
2023/02/09 00:38:47;;;;;;;0.80;0.80;;;-1.60;69.60;;;-3.47;62.36;96708.28;5015169;28;20217;-35
2023/02/09 00:41:16;;;;;;;0.90;0.90;;;-1.70;69.50;;;-3.51;61.91;96709.31;5015417;28;20190;-36
2023/02/09 00:43:43;;;;;;;0.95;0.95;;;-1.70;69.60;;;-3.51;62.05;96703.38;5015179;28;20221;-34
2023/02/09 00:46:10;;;;;;;0.95;0.95;;;-1.80;69.70;;;-3.53;61.93;96703.41;5015247;28;20216;-33
2023/02/09 00:48:37;;;;;;;0.80;0.80;;;-1.80;69.70;;;-3.56;61.77;96701.81;5014827;28;20605;-36
2023/02/09 00:51:04;;;;;;;0.80;0.80;;;-1.80;69.60;;;-3.58;61.77;96705.31;5014883;28;20194;-34
2023/02/09 00:53:31;;;;;;;0.80;0.80;;;-1.80;69.40;;;-3.61;61.43;96708.03;5014836;28;20200;-35
2023/02/09 00:55:58;;;;;;;0.93;0.93;;;-1.80;69.70;;;-3.66;61.37;96703.06;5030201;28;20259;-34
2023/02/09 00:58:25;;;;;;;0.80;0.80;;;-1.80;69.20;;;-3.72;61.17;96700.75;5013666;28;20205;-32
2023/02/09 01:00:52;;;;;;;0.90;0.90;;;-1.90;69.10;;;-3.78;61.21;96701.81;5030228;28;20201;-35
2023/02/09 01:03:19;;;;;;;1.00;1.00;;;-1.90;69.10;;;-3.84;61.46;96707.16;5014683;28;20229;-35
2023/02/09 01:05:46;;;;;;;0.90;0.90;;;-2.00;69.10;;;-3.88;61.21;96697.94;5014762;28;20205;-34
2023/02/09 01:08:13;;;;;;;0.80;0.80;;;-2.00;69.10;;;-3.93;61.43;96700.69;5014601;28;20225;-34
2023/02/09 01:10:41;;;;;;;0.80;0.80;;;-2.10;69.00;;;-3.96;61.55;96692.25;5030654;28;20202;-31
2023/02/09 01:13:07;;;;;;;0.90;0.90;;;-2.10;69.10;;;-3.99;61.51;96700.06;5014563;28;20196;-34
2023/02/09 01:15:38;;;;;;;0.90;0.90;;;-2.10;69.20;;;-4.04;61.36;96695.94;5013610;28;20201;-35
2023/02/09 01:18:06;;;;;;;0.80;0.80;;;-2.20;69.10;;;-4.06;61.46;96691.78;5014047;28;20200;-35
2023/02/09 01:20:33;;;;;;;1.00;1.00;;;-2.20;69.00;;;-4.09;61.50;96694.44;5014425;28;20201;-32
2023/02/09 01:23:00;;;;;;;0.80;0.80;;;-2.30;69.00;;;-4.13;61.59;96696.28;5013810;28;20209;-35
2023/02/09 01:25:29;;;;;;;0.80;0.80;;;-2.30;69.20;;;-4.16;61.26;96687.88;5013518;28;20206;-34
2023/02/09 01:27:56;;;;;;;0.80;0.80;;;-2.30;69.00;;;-4.20;61.26;96682.03;5014197;28;20553;-32
2023/02/09 01:30:23;;;;;;;0.90;0.90;;;-2.30;69.00;;;-4.23;61.45;96674.47;5014203;28;20632;-36
2023/02/09 01:32:50;;;;;;;1.00;1.00;;;-2.40;69.00;;;-4.28;61.20;96677.19;5014509;28;20196;-32
2023/02/09 01:35:18;;;;;;;0.90;0.90;;;-2.40;69.10;;;-4.30;61.23;96673.84;5014528;28;20276;-32
2023/02/09 01:37:45;;;;;;;1.00;1.00;;;-2.40;69.10;;;-4.34;61.51;96664.63;5014193;28;20682;-31
2023/02/09 01:40:13;;;;;;;1.00;1.00;;;-2.40;69.20;;;-4.36;61.55;96667.25;5029541;28;20213;-34
2023/02/09 01:42:40;;;;;;;0.90;0.90;;;-2.50;69.30;;;-4.38;61.95;96663.03;5029592;28;20633;-36
2023/02/09 01:45:19;;;;;;;1.00;1.00;;;-2.50;69.40;;;-4.38;61.68;96666.47;5029549;28;20251;-36
2023/02/09 01:47:55;;;;;;;1.00;1.00;;;-2.60;69.30;;;-4.40;61.77;96664.84;5013958;28;20229;-35
2023/02/09 01:50:26;;;;;;;0.90;0.90;;;-2.60;69.30;;;-4.41;61.72;96658.06;5013465;28;20200;-32
2023/02/09 01:52:54;;;;;;;1.00;1.00;;;-2.60;69.30;;;-4.43;61.63;96655.56;5013950;28;20632;-31
2023/02/09 01:55:26;;;;;;;0.82;0.82;;;-2.60;69.30;;;-4.45;61.18;96649.66;5012804;28;20275;-36
2023/02/09 01:58:02;;;;;;;0.80;0.80;;;-2.60;69.30;;;-4.49;61.44;96637.84;5029650;28;20190;-33
2023/02/09 02:00:29;;;;;;;0.80;0.80;;;-2.70;69.30;;;-4.53;61.72;96634.56;5014134;28;20285;-32
2023/02/09 02:03:03;;;;;;;0.80;0.80;;;-2.60;69.40;;;-4.54;61.60;96635.47;5014106;28;20226;-35
2023/02/09 02:05:33;;;;;;;0.90;0.90;;;-2.70;69.50;;;-4.54;61.56;96638.03;5013820;28;20210;-32
2023/02/09 02:08:13;;;;;;;1.00;1.00;;;-2.70;69.40;;;-4.55;61.42;96645.75;5012852;28;20280;-36
2023/02/09 02:10:40;;;;;;;1.00;1.00;;;-2.80;69.40;;;-4.58;61.35;96631.31;5029185;28;20194;-33
2023/02/09 02:13:07;;;;;;;1.00;1.00;;;-2.70;69.30;;;-4.59;61.12;96636.50;5029178;28;20262;-31
2023/02/09 02:16:08;;;;;;;0.85;0.85;;;-2.70;69.30;;;-4.62;61.15;96639.19;5013595;28;20694;-33
2023/02/09 02:19:31;;;;;;;0.80;0.80;;;-2.80;69.30;;;-4.66;61.50;96633.34;5012530;28;20212;-33
2023/02/09 02:22:54;;;;;;;0.80;0.80;;;-2.80;69.60;;;-4.71;61.40;96630.94;4995752;28;20529;-31
2023/02/09 02:25:45;;;;;;;0.90;0.90;;;-2.90;69.50;;;-4.73;61.23;96617.34;5028959;28;20207;-35
2023/02/09 02:28:41;;;;;;;0.80;0.80;;;-2.90;69.40;;;-4.76;61.86;96617.50;5013215;28;20644;-33
2023/02/09 02:31:37;;;;;;;0.80;0.80;;;-2.90;69.40;;;-4.77;61.76;96608.13;5027959;28;20198;-33
2023/02/09 02:34:47;;;;;;;0.80;0.80;;;-2.90;69.50;;;-4.76;62.03;96614.94;5012724;28;20194;-33
2023/02/09 02:37:47;;;;;;;1.00;1.00;;;-2.90;69.70;;;-4.77;62.14;96617.53;5013406;28;20217;-35
2023/02/09 02:41:11;;;;;;;0.80;0.80;;;-2.90;69.70;;;-4.77;61.49;96607.28;5013121;28;20182;-34
2023/02/09 02:44:02;;;;;;;0.90;0.90;;;-2.90;69.70;;;-4.83;61.60;96604.06;4972894;28;20183;-31
2023/02/09 02:46:43;;;;;;;0.90;0.90;;;-3.00;69.40;;;-4.86;61.05;96608.44;4972653;28;20504;-34
2023/02/09 02:49:44;;;;;;;0.93;0.93;;;-3.00;69.40;;;-4.87;61.26;96604.22;5002586;28;20692;-32
2023/02/09 02:52:11;;;;;;;0.80;0.80;;;-3.00;69.40;;;-4.91;61.42;96608.63;5013323;28;20212;-36
2023/02/09 02:54:44;;;;;;;0.70;0.70;;;-3.00;69.30;;;-4.89;61.51;96608.56;5012156;28;20533;-33
2023/02/09 02:57:17;;;;;;;0.80;0.80;;;-3.10;69.40;;;-4.89;61.58;96603.47;5028353;28;20236;-35
2023/02/09 03:00:25;;;;;;;0.80;0.80;;;-3.10;69.40;;;-4.89;61.45;96609.41;5012834;28;20193;-34
2023/02/09 03:02:57;;;;;;;0.80;0.80;;;-3.10;69.70;;;-4.90;61.39;96607.72;5012894;28;20204;-32
2023/02/09 03:05:26;;;;;;;0.90;0.90;;;-3.10;69.50;;;-4.93;61.35;96607.84;5028523;28;20182;-31
2023/02/09 03:07:53;;;;;;;0.90;0.90;;;-3.10;69.70;;;-4.99;60.87;96608.06;5028337;28;20209;-32
2023/02/09 03:10:38;;;;;;;0.80;0.80;;;-3.10;69.60;;;-5.07;61.05;96607.50;5012647;28;20197;-35
2023/02/09 03:13:45;;;;;;;0.80;0.80;;;-3.20;69.50;;;-5.18;61.07;96611.25;5012931;28;20182;-33
2023/02/09 03:16:47;;;;;;;0.80;0.80;;;-3.30;69.20;;;-5.29;60.83;96620.19;5012679;28;20513;-35
2023/02/09 03:19:37;;;;;;;0.80;0.80;;;-3.30;69.10;;;-5.39;60.93;96606.91;5028160;28;20631;-35
2023/02/09 03:22:21;;;;;;;0.90;0.90;;;-3.40;69.20;;;-5.44;60.84;96613.84;5028107;28;20190;-31
2023/02/09 03:24:58;;;;;;;0.80;0.80;;;-3.50;69.00;;;-5.50;61.26;96610.63;5028438;28;20193;-34
2023/02/09 03:27:47;;;;;;;0.80;0.80;;;-3.50;69.10;;;-5.53;61.16;96610.75;5012583;28;20196;-34
2023/02/09 03:30:16;;;;;;;0.80;0.80;;;-3.60;69.40;;;-5.54;61.34;96614.19;5027861;28;20189;-35
2023/02/09 03:32:45;;;;;;;0.80;0.80;;;-3.60;69.30;;;-5.55;61.42;96609.94;5011623;28;20559;-34
2023/02/09 03:35:16;;;;;;;0.90;0.90;;;-3.60;69.30;;;-5.55;61.19;96616.81;5012431;28;20194;-33
2023/02/09 03:37:43;;;;;;;0.98;0.98;;;-3.60;69.40;;;-5.54;61.10;96609.06;5012680;28;20255;-36
2023/02/09 03:40:10;;;;;;;0.80;0.80;;;-3.70;69.40;;;-5.51;61.23;96600.47;5012374;28;20594;-32
2023/02/09 03:42:37;;;;;;;0.80;0.80;;;-3.70;69.40;;;-5.49;61.31;96602.06;5027665;28;20200;-35
2023/02/09 03:45:06;;;;;;;0.90;0.90;;;-3.70;69.50;;;-5.45;61.30;96599.44;5012312;28;20193;-33
2023/02/09 03:47:34;;;;;;;0.90;0.90;;;-3.70;69.70;;;-5.42;61.32;96604.44;5012739;28;20514;-34
2023/02/09 03:50:01;;;;;;;0.80;0.80;;;-3.60;69.80;;;-5.40;61.35;96613.72;5011258;28;20228;-35
2023/02/09 03:52:30;;;;;;;0.70;0.70;;;-3.70;69.90;;;-5.36;61.62;96606.78;5012257;28;20212;-35
2023/02/09 03:54:57;;;;;;;0.80;0.80;;;-3.60;70.10;;;-5.32;61.55;96613.47;5012173;28;20547;-35
2023/02/09 03:57:24;;;;;;;1.00;1.00;;;-3.60;70.20;;;-5.30;61.44;96606.56;5027584;28;20229;-33
2023/02/09 03:59:51;;;;;;;0.90;0.90;;;-3.60;70.10;;;-5.27;61.54;96606.47;5011980;28;20555;-32
2023/02/09 04:02:18;;;;;;;0.98;0.98;;;-3.50;70.10;;;-5.26;61.49;96610.69;5012392;28;20545;-32
2023/02/09 04:04:45;;;;;;;1.00;1.00;;;-3.50;70.00;;;-5.26;61.39;96603.03;5012350;28;20209;-34
2023/02/09 04:07:12;;;;;;;0.90;0.90;;;-3.50;70.10;;;-5.25;61.23;96601.28;5012022;28;20194;-36
2023/02/09 04:09:39;;;;;;;0.80;0.80;;;-3.50;70.10;;;-5.24;61.26;96602.97;5011781;28;20220;-36
2023/02/09 04:12:06;;;;;;;0.88;0.88;;;-3.50;70.10;;;-5.23;61.33;96597.78;5011964;28;20185;-34
2023/02/09 04:14:33;;;;;;;0.80;0.80;;;-3.50;70.00;;;-5.24;61.30;96603.78;5011962;28;20681;-34
2023/02/09 04:17:00;;;;;;;0.90;0.90;;;-3.40;70.10;;;-5.24;61.14;96608.09;5011991;28;20205;-35
2023/02/09 04:19:27;;;;;;;0.80;0.80;;;-3.40;70.00;;;-5.25;61.26;96606.41;5011954;28;20197;-32
2023/02/09 04:21:54;;;;;;;0.90;0.90;;;-3.40;70.00;;;-5.24;61.20;96605.53;5011844;28;20227;-35
2023/02/09 04:24:31;;;;;;;1.00;1.00;;;-3.40;69.90;;;-5.26;61.43;96610.69;5012117;28;20580;-34
2023/02/09 04:26:58;;;;;;;0.80;0.80;;;-3.40;69.80;;;-5.25;61.55;96614.91;5012049;28;20300;-35
2023/02/09 04:29:26;;;;;;;0.90;0.90;;;-3.40;70.00;;;-5.24;61.72;96615.75;5011725;28;20210;-33
2023/02/09 04:31:53;;;;;;;0.82;0.82;;;-3.40;69.90;;;-5.21;61.61;96619.06;5011977;28;20198;-33
2023/02/09 04:34:21;;;;;;;0.80;0.80;;;-3.40;69.90;;;-5.20;61.78;96613.06;5027210;28;20194;-35
2023/02/09 04:36:49;;;;;;;0.90;0.90;;;-3.40;69.80;;;-5.18;61.82;96610.44;5011864;28;20185;-32
2023/02/09 04:39:16;;;;;;;0.90;0.90;;;-3.40;69.90;;;-5.17;61.67;96612.94;5011512;28;20571;-34
2023/02/09 04:41:43;;;;;;;1.00;1.00;;;-3.40;69.80;;;-5.14;61.39;96614.53;5011633;28;20193;-33
2023/02/09 04:44:10;;;;;;;0.80;0.80;;;-3.30;69.90;;;-5.17;61.49;96600.13;5011721;28;20201;-31
2023/02/09 04:46:37;;;;;;;0.80;0.80;;;-3.40;69.90;;;-5.17;61.41;96605.25;5011531;28;20549;-34
2023/02/09 04:49:04;;;;;;;0.70;0.70;;;-3.40;69.90;;;-5.18;61.62;96602.75;5011550;28;20225;-35
2023/02/09 04:51:30;;;;;;;0.90;0.90;;;-3.40;69.80;;;-5.18;61.68;96601.03;5011524;28;20697;-33
2023/02/09 04:53:57;;;;;;;0.80;0.80;;;-3.40;69.80;;;-5.19;61.38;96603.63;5013656;28;20204;-32
2023/02/09 04:56:25;;;;;;;0.75;0.75;;;-3.40;69.90;;;-5.19;61.36;96598.53;5013724;28;20235;-36
2023/02/09 05:01:37;;;;;;;0.90;0.90;;;-3.40;69.90;;;-5.20;61.48;96600.25;5014891;28;20186;-35
2023/02/09 05:04:04;;;;;;;0.80;0.80;;;-3.40;69.80;;;-5.20;61.48;96601.97;5014722;28;20198;-31
2023/02/09 05:06:31;;;;;;;0.90;0.90;;;-3.40;69.80;;;-5.19;61.34;96598.53;5014696;28;20193;-36
2023/02/09 05:08:58;;;;;;;0.90;0.90;;;-3.40;69.80;;;-5.21;61.33;96602.84;5014571;28;20677;-34
2023/02/09 05:11:25;;;;;;;0.90;0.90;;;-3.40;69.80;;;-5.20;61.75;96601.97;5014466;28;20197;-35
2023/02/09 05:13:52;;;;;;;0.82;0.82;;;-3.40;70.00;;;-5.19;61.63;96596.81;5030015;28;20269;-31
2023/02/09 05:16:19;;;;;;;0.80;0.80;;;-3.40;69.90;;;-5.18;61.93;96588.22;5014539;28;20197;-32
2023/02/09 05:18:46;;;;;;;0.90;0.90;;;-3.40;70.00;;;-5.15;61.96;96588.13;5014567;28;20205;-34
2023/02/09 05:21:13;;;;;;;0.90;0.90;;;-3.40;69.90;;;-5.14;61.90;96591.50;5014279;28;20209;-36
2023/02/09 05:23:40;;;;;;;0.90;0.90;;;-3.30;69.90;;;-5.13;61.77;96587.25;5014444;28;20211;-33
2023/02/09 05:26:08;;;;;;;0.90;0.90;;;-3.30;70.00;;;-5.13;61.84;96582.13;5014375;28;20197;-36
2023/02/09 05:28:35;;;;;;;1.00;1.00;;;-3.30;70.00;;;-5.11;61.88;96582.91;5014268;28;20228;-35
2023/02/09 05:31:02;;;;;;;0.90;0.90;;;-3.30;69.90;;;-5.12;61.74;96581.25;5014327;28;20219;-33
2023/02/09 05:33:29;;;;;;;0.90;0.90;;;-3.30;69.90;;;-5.15;61.76;96582.16;5014288;28;20200;-36
2023/02/09 05:35:56;;;;;;;0.90;0.90;;;-3.30;69.80;;;-5.17;61.46;96591.63;5014373;28;20201;-32
2023/02/09 05:38:23;;;;;;;0.90;0.90;;;-3.30;69.70;;;-5.21;61.52;96593.47;5029661;28;20190;-35
2023/02/09 05:40:50;;;;;;;1.00;1.00;;;-3.40;69.60;;;-5.23;61.39;96584.19;5014271;28;20198;-36
2023/02/09 05:43:17;;;;;;;0.90;0.90;;;-3.40;69.50;;;-5.26;61.21;96581.72;5014132;28;20250;-32
2023/02/09 05:45:45;;;;;;;0.80;0.80;;;-3.40;69.50;;;-5.29;61.33;96589.50;5014386;28;20699;-31
2023/02/09 05:48:12;;;;;;;0.80;0.80;;;-3.40;69.40;;;-5.33;61.43;96593.91;5013958;28;20250;-34
2023/02/09 05:50:39;;;;;;;0.90;0.90;;;-3.40;69.40;;;-5.35;61.47;96593.09;5013872;28;20217;-35
2023/02/09 05:53:07;;;;;;;0.90;0.90;;;-3.40;69.40;;;-5.39;61.31;96587.25;5013948;28;20197;-30
2023/02/09 05:55:34;;;;;;;1.00;1.00;;;-3.50;69.40;;;-5.41;61.44;96591.59;5013796;28;20225;-33
2023/02/09 05:58:01;;;;;;;1.00;1.00;;;-3.50;69.40;;;-5.44;61.50;96586.59;5013954;28;20197;-32
2023/02/09 06:00:29;;;;;;;0.80;0.80;;;-3.50;69.40;;;-5.47;61.76;96590.09;5029339;28;20216;-31
2023/02/09 06:02:57;;;;;;;0.90;0.90;;;-3.50;69.50;;;-5.45;61.68;96586.66;5013843;28;20201;-30
2023/02/09 06:05:25;;;;;;;0.80;0.80;;;-3.50;69.60;;;-5.44;61.42;96588.28;5013794;28;20208;-33
2023/02/09 06:07:52;;;;;;;0.90;0.90;;;-3.60;69.60;;;-5.45;61.94;96579.81;5012878;28;20628;-32
2023/02/09 06:10:19;;;;;;;0.80;0.80;;;-3.60;69.60;;;-5.45;61.69;96582.34;5013705;28;20288;-33
2023/02/09 06:12:47;;;;;;;0.90;0.90;;;-3.60;69.60;;;-5.44;61.85;96583.19;5013667;28;20204;-34
2023/02/09 06:15:17;;;;;;;0.90;0.90;;;-3.60;69.70;;;-5.44;61.59;96596.81;5013628;28;20197;-35
2023/02/09 06:17:45;;;;;;;0.80;0.80;;;-3.60;69.70;;;-5.47;61.99;96587.53;5013676;28;20182;-33
2023/02/09 06:20:12;;;;;;;0.80;0.80;;;-3.60;69.80;;;-5.45;61.84;96587.47;5028737;28;20617;-35
2023/02/09 06:22:39;;;;;;;0.90;0.90;;;-3.60;69.90;;;-5.44;62.26;96588.28;5013544;28;20202;-32
2023/02/09 06:25:06;;;;;;;0.98;0.98;;;-3.60;70.00;;;-5.42;62.06;96587.38;5013462;28;20525;-32
2023/02/09 06:27:33;;;;;;;0.80;0.80;;;-3.60;70.10;;;-5.39;62.24;96589.81;5028986;28;20209;-35
2023/02/09 06:30:00;;;;;;;0.90;0.90;;;-3.60;70.10;;;-5.39;62.01;96581.31;5028645;28;20217;-30
2023/02/09 06:32:27;;;;;;;0.80;0.80;;;-3.60;70.10;;;-5.36;62.36;96578.66;5013420;28;20204;-33
2023/02/09 06:34:54;;;;;;;0.90;0.90;;;-3.60;70.20;;;-5.32;62.39;96582.78;5013321;28;20193;-32
2023/02/09 06:37:21;;;;;;;0.80;0.80;;;-3.50;70.30;;;-5.28;62.32;96584.34;5013291;28;20288;-32
2023/02/09 06:39:48;;;;;;;0.80;0.80;;;-3.50;70.30;;;-5.24;62.54;96578.22;5013231;28;20263;-34
2023/02/09 06:42:15;;;;;;;0.80;0.80;;;-3.50;70.30;;;-5.18;62.75;96580.56;5013250;28;20212;-35
2023/02/09 06:44:42;;;;;;;0.90;0.90;;;-3.50;70.50;;;-5.12;62.64;96579.50;5013300;28;20194;-36
2023/02/09 06:47:09;;;;;;;0.90;0.90;;;-3.50;70.60;;;-5.06;63.62;96575.91;5028913;28;20212;-34
2023/02/09 06:49:36;;;;;;;0.77;0.77;;;-3.40;71.00;;;-4.98;63.35;96581.56;5013322;28;20218;-32
2023/02/09 06:52:04;;;;;;;0.93;0.93;;;-3.40;71.00;;;-4.91;62.98;96585.56;5028570;28;20226;-31
2023/02/09 06:54:31;;;;;;;0.98;0.98;;;-3.30;71.00;;;-4.84;63.02;96583.66;5028680;28;20624;-33
2023/02/09 06:56:58;;;;;;;0.90;0.90;;;-3.20;71.10;;;-4.77;62.65;96584.25;5012868;28;20298;-31
2023/02/09 06:59:25;;;;;;;0.80;0.80;;;-3.20;71.10;;;-4.73;62.88;96584.09;5013262;28;20575;-31
2023/02/09 07:01:52;;;;;;;0.80;0.80;;;-3.10;71.10;;;-4.64;62.51;96592.31;5012794;28;20193;-33
2023/02/09 07:04:21;;;;;;;0.90;0.90;;;-3.10;71.00;;;-4.59;62.47;96588.72;5012084;28;20288;-33
2023/02/09 07:06:48;;;;;;;0.80;0.80;;;-3.00;71.00;;;-4.54;62.33;96591.94;5012022;28;20694;-35
2023/02/09 07:09:15;;;;;;;0.80;0.80;;;-3.00;71.00;;;-4.49;62.58;96581.50;5012978;28;20298;-36
2023/02/09 07:11:42;;;;;;;0.80;0.80;;;-2.90;71.10;;;-4.43;62.77;96583.00;5012849;28;20198;-36
2023/02/09 07:14:09;;;;;;;0.80;0.80;;;-2.90;71.10;;;-4.35;62.50;96586.91;5012792;28;20198;-34
2023/02/09 07:16:36;;;;;;;0.90;0.90;;;-2.80;71.10;;;-4.29;62.35;96572.22;5012449;28;20564;-35
2023/02/09 07:19:03;;;;;;;0.80;0.80;;;-2.80;71.10;;;-4.24;62.51;96583.94;5012695;28;20194;-35
2023/02/09 07:21:30;;;;;;;0.70;0.70;;;-2.70;71.10;;;-4.18;62.42;96588.84;5012514;28;20525;-25
2023/02/09 07:23:57;;;;;;;0.80;0.80;;;-2.70;71.10;;;-4.11;62.28;96588.59;5012631;28;20202;-24
2023/02/09 07:26:24;;;;;;;0.80;0.80;;;-2.60;71.10;;;-4.05;62.39;96588.38;5012554;28;20651;-25
2023/02/09 07:28:51;;;;;;;0.90;0.90;;;-2.60;71.10;;;-3.99;62.19;96577.88;5012466;28;20273;-24
2023/02/09 07:31:19;;;;;;;0.80;0.80;;;-2.50;71.20;;;-3.93;62.40;96580.19;5027318;28;20211;-24
2023/02/09 07:33:46;;;;;;;0.80;0.80;;;-2.40;71.30;;;-3.86;62.09;96580.78;5037993;27;20197;-26
2023/02/09 07:36:15;;;;;;;0.80;0.80;;;-2.40;71.30;;;-3.79;62.40;96571.94;5055693;27;20201;-26
2023/02/09 07:38:42;;;;;;;1.00;1.00;;;-2.40;71.30;;;-3.71;62.53;96571.63;5039097;28;20205;-25
2023/02/09 07:41:17;;;;;;;0.90;0.90;;;-2.30;71.50;;;-3.62;62.63;96575.56;5032036;28;20193;-25
2023/02/09 07:43:45;;;;;;;0.70;0.70;;;-2.20;71.60;;;-3.55;62.61;96575.22;5031459;28;20210;-24
2023/02/09 07:46:16;;;;;;;0.80;0.80;;;-2.20;71.50;;;-3.46;62.72;96575.75;5031642;28;20189;-25
2023/02/09 07:48:43;;;;;;;0.70;0.70;;;-2.10;72.50;;;-3.36;62.40;96571.06;5032546;28;20176;-24
2023/02/09 07:51:23;;;;;;;0.80;0.80;;;-2.00;71.60;;;-3.27;62.85;96571.50;5027990;28;20197;-25
2023/02/09 07:53:52;;;;;;;0.90;0.90;;;-1.90;71.70;;;-3.20;62.63;96577.19;5011818;28;20584;-25
2023/02/09 07:56:19;;;;;;;0.90;0.90;;;-1.80;71.70;;;-3.14;62.50;96568.41;5027953;28;20229;-26
2023/02/09 07:58:46;;;;;;;0.90;0.90;;;-1.70;71.80;;;-3.06;62.52;96569.75;5032431;28;20193;-25
2023/02/09 08:01:13;;;;;;;0.80;0.80;;;-1.70;71.80;;;-2.96;62.23;96564.22;5032091;28;20193;-25
2023/02/09 08:03:46;;;;;;;1.00;1.00;;;-1.60;71.90;;;-2.90;62.58;96567.34;5031955;28;20207;-24
2023/02/09 08:06:40;;;;;;;0.90;0.90;;;-1.50;72.00;;;-2.78;62.49;96570.28;5004657;28;20308;-26
2023/02/09 08:09:12;;;;;;;0.80;0.80;;;-1.50;71.80;;;-2.68;62.26;96570.69;5012834;28;20592;-25
2023/02/09 08:12:01;;;;;;;0.98;0.98;;;-1.30;71.90;;;-2.59;62.44;96573.69;5032059;28;20259;-25
2023/02/09 08:14:43;;;;;;;0.80;0.80;;;-1.30;71.80;;;-2.51;62.19;96569.94;5031829;28;20177;-24
2023/02/09 08:17:20;;;;;;;0.90;0.90;;;-1.20;71.80;;;-2.42;61.96;96577.19;5031455;28;20501;-27
2023/02/09 08:19:55;;;;;;;0.90;0.90;;;-1.10;71.80;;;-2.33;62.19;96579.34;5046708;28;20571;-26
2023/02/09 08:22:23;;;;;;;0.80;0.80;;;-1.10;71.70;;;-2.26;62.13;96570.47;5030960;28;20212;-24
2023/02/09 08:24:51;;;;;;;1.00;1.00;;;-1.00;71.70;;;-2.18;61.85;96567.53;5031968;28;20205;-25
2023/02/09 08:27:18;;;;;;;0.90;0.90;;;-0.90;71.70;;;-2.10;61.69;96568.00;5032968;28;20205;-26
2023/02/09 08:29:46;;;;;;;0.80;0.80;;;-0.80;71.70;;;-2.04;61.49;96564.28;5041061;27;20217;-25
2023/02/09 08:32:15;;;;;;;1.00;1.00;;;-0.70;71.70;;;-1.97;61.43;96557.94;5035491;28;20204;-25
2023/02/09 08:34:42;;;;;;;0.90;0.90;;;-0.70;71.60;;;-1.88;61.71;96553.28;5032963;28;20209;-26
2023/02/09 08:37:09;;;;;;;1.00;1.00;;;-0.60;71.50;;;-1.82;61.13;96555.53;5035329;28;20185;-26
2023/02/09 08:39:36;;;;;;;1.00;1.00;;;-0.50;71.40;;;-1.75;61.03;96543.22;5035564;28;20692;-27
2023/02/09 08:42:03;;;;;;;0.80;0.80;;;-0.50;71.40;;;-1.67;60.99;96554.81;5030421;28;20212;-24
2023/02/09 08:44:30;;;;;;;1.00;1.00;;;-0.40;71.40;;;-1.56;60.97;96550.84;5034911;28;20637;-24
2023/02/09 08:46:57;;;;;;;1.00;1.00;;;-0.30;71.40;;;-1.48;60.90;96559.03;5033985;28;20208;-25
2023/02/09 08:49:24;;;;;;;0.80;0.80;;;-0.30;71.30;;;-1.39;60.90;96556.00;5033780;28;20285;-25
2023/02/09 08:51:51;;;;;;;0.80;0.80;;;-0.20;71.30;;;-1.31;60.87;96559.03;5032290;27;20197;-24
2023/02/09 08:54:18;;;;;;;0.80;0.80;;;-0.10;71.40;;;-1.22;60.71;96556.88;5034972;28;20661;-24
2023/02/09 08:56:45;;;;;;;0.95;0.95;;;0.00;71.20;;;-1.15;60.38;96553.09;5033944;28;20229;-25
2023/02/09 08:59:12;;;;;;;0.80;0.80;;;0.00;71.10;;;-1.09;60.12;96550.19;5035635;28;20253;-25
2023/02/09 09:01:39;;;;;;;0.90;0.90;;;0.10;71.00;;;-1.01;60.10;96547.25;5034767;28;20191;-24
2023/02/09 09:04:07;;;;;;;0.80;0.80;;;0.20;71.00;;;-0.93;59.79;96539.09;5034489;28;20246;-26
2023/02/09 09:06:34;;;;;;;0.90;0.90;;;0.30;70.90;;;-0.87;59.60;96546.50;5029017;28;20301;-25
2023/02/09 09:09:01;;;;;;;0.80;0.80;;;0.30;70.70;;;-0.83;59.39;96537.69;5036926;27;20197;-26
2023/02/09 09:11:28;;;;;;;1.00;1.00;;;0.40;70.50;;;-0.79;58.92;96528.91;5034527;28;20204;-26
2023/02/09 09:13:57;;;;;;;0.80;0.80;;;0.40;70.20;;;-0.76;58.23;96522.75;5033979;27;20280;-24
2023/02/09 09:16:24;;;;;;;0.85;0.85;;;0.50;70.00;;;-0.74;57.70;96526.91;5042747;28;20193;-26
2023/02/09 09:18:51;;;;;;;0.90;0.90;;;0.50;69.70;;;-0.69;58.04;96530.06;5033545;28;20210;-24
2023/02/09 09:21:18;;;;;;;0.80;0.80;;;0.60;69.60;;;-0.63;57.51;96539.22;5035173;28;20577;-24
2023/02/09 09:23:46;;;;;;;0.80;0.80;;;0.60;69.30;;;-0.58;57.74;96529.50;5034612;27;20219;-24
2023/02/09 09:26:14;;;;;;;1.00;1.00;;;0.70;69.30;;;-0.49;57.79;96533.31;5033657;27;20208;-24
2023/02/09 09:28:42;;;;;;;1.00;1.00;;;0.70;69.40;;;-0.40;57.55;96530.25;5060581;28;20208;-25
2023/02/09 09:31:15;;;;;;;0.93;0.93;;;0.80;69.40;;;-0.29;57.93;96539.97;5033708;28;20213;-24
2023/02/09 09:33:43;;;;;;;0.80;0.80;;;0.80;69.40;;;-0.21;57.41;96537.81;5034179;28;20207;-24
2023/02/09 09:36:13;;;;;;;0.80;0.80;;;0.90;69.50;;;-0.11;57.74;96532.97;5034129;27;20189;-24
2023/02/09 09:38:40;;;;;;;0.80;0.80;;;1.00;69.60;;;0.01;57.01;96533.19;5032416;28;20255;-25
2023/02/09 09:41:24;;;;;;;0.90;0.90;;;1.00;69.60;;;0.09;57.19;96531.84;5034247;28;20532;-35
2023/02/09 09:43:53;;;;;;;0.80;0.80;;;1.10;69.30;;;0.17;57.16;96526.22;5033606;28;20521;-32
2023/02/09 09:46:44;;;;;;;0.80;0.80;;;1.20;69.70;;;0.29;57.18;96522.97;5049946;28;20262;-32
2023/02/09 09:49:20;;;;;;;0.70;0.70;;;1.30;70.70;;;0.37;56.23;96529.44;5030360;28;20192;-31
2023/02/09 09:51:54;;;;;;;0.80;0.80;;;1.40;69.20;;;0.44;56.30;96523.81;5048775;28;20612;-31
2023/02/09 09:54:24;;;;;;;0.90;0.90;;;1.50;69.00;;;0.53;56.12;96513.91;5029743;28;20178;-34
2023/02/09 09:56:53;;;;;;;0.70;0.70;;;1.50;68.90;;;0.62;56.13;96516.75;5014435;28;20240;-35
2023/02/09 09:59:28;;;;;;;0.90;0.90;;;1.60;69.00;;;0.70;55.77;96511.13;5018127;28;20200;-33
2023/02/09 10:01:57;;;;;;;0.90;0.90;;;1.70;68.80;;;0.76;56.08;96510.78;5036490;28;20643;-34
2023/02/09 10:04:24;;;;;;;0.90;0.90;;;1.80;68.80;;;0.82;55.60;96513.91;5019690;28;20189;-36
2023/02/09 10:07:01;;;;;;;0.90;0.90;;;1.90;68.80;;;0.93;56.03;96520.09;5029864;28;20194;-33
2023/02/09 10:09:40;;;;;;;0.80;0.80;;;1.90;68.80;;;1.02;55.91;96510.13;5014495;28;20173;-37
2023/02/09 10:12:17;;;;;;;1.00;1.00;;;2.00;68.70;;;1.07;54.70;96516.66;5022643;28;20196;-36
2023/02/09 10:14:44;;;;;;;0.80;0.80;;;2.10;68.10;;;1.15;55.24;96505.03;5033533;28;20600;-32
2023/02/09 10:17:11;;;;;;;0.80;0.80;;;2.10;68.30;;;1.22;55.12;96507.16;5033610;28;20193;-35
2023/02/09 10:19:37;;;;;;;0.80;0.80;;;2.20;68.30;;;1.29;54.62;96499.84;5048284;28;20207;-35
2023/02/09 10:22:12;;;;;;;0.90;0.90;;;2.30;68.20;;;1.33;53.80;96498.75;5033140;27;20201;-34
2023/02/09 10:24:40;;;;;;;0.80;0.80;;;2.30;67.70;;;1.41;54.52;96506.84;5033659;28;20200;-34
2023/02/09 10:27:29;;;;;;;0.90;0.90;;;2.40;68.80;;;1.50;54.80;96508.03;5031663;27;20189;-34
2023/02/09 10:30:17;;;;;;;0.80;0.80;;;2.50;67.70;;;1.63;55.06;96502.09;5014195;28;20242;-36
2023/02/09 10:32:44;;;;;;;0.70;0.70;;;2.60;68.00;;;1.71;54.52;96498.09;5021802;28;20193;-34
2023/02/09 10:35:33;;;;;;;0.90;0.90;;;2.70;68.20;;;1.78;53.68;96498.50;5018903;28;20200;-35
2023/02/09 10:38:03;;;;;;;0.73;0.73;;;2.70;67.50;;;1.85;54.04;96492.03;5032549;28;20616;-34
2023/02/09 10:40:33;;;;;;;0.90;0.90;;;2.80;67.80;;;1.90;53.82;96486.56;5032383;28;20676;-33
2023/02/09 10:43:03;;;;;;;0.70;0.70;;;2.90;67.60;;;1.97;53.45;96490.41;5031357;27;20276;-33